Cosmopolis, WA

3:06 AM PDT on July 24, 2016 (GMT -0700)
Cosmopolis | | Change Station

Elev 125 ft 46.95 °N, 123.78 °W | Updated 1 minute ago

Clear
Clear
51.1 °F
Feels Like 51.1 °F
N
0.0
Wind Variable Wind from SE
Gusts 0.0 mph

Today
High -- | Low -- °F
--% Chance of Precip.
Yesterday
High -- | Low -- °F
Precip. -- in
Pressure 30.18 in
Visibility 6.0 miles
Clouds Clear
Dew Point 50 °F
Humidity 94%
Rainfall 0.00 in
Snow Depth Not available.
5:45 AM 8:56 PM
Waning Gibbous, 77% visible
METAR KHQM 240953Z AUTO 31003KT 6SM BR CLR 13/12 A3017 RMK AO2 SLP220 T01280122
Pressure 30.18 in
Visibility 6.0 miles
Clouds Clear
Dew Point 50 °F
Humidity 94%
Rainfall 0.00 in
Snow Depth Not available.
5:45 AM 8:56 PM
Waning Gibbous, 77% visible
METAR KHQM 240953Z AUTO 31003KT 6SM BR CLR 13/12 A3017 RMK AO2 SLP220 T01280122

10-Day Weather Forecast

Almanac

Astronomy

Jul. 24, 2016 Rise Set
Actual Time
Civil Twilight
Nautical Twilight
Astronomical Twilight
Moon
Length of Visible Light
Length of Day
Tomorrow will be .
, % of the Moon is Illuminated

Today's Extremes

State Highs State Lows

Community

WunderPhotos

Upload Photos

1,927,040 photos uploaded!

WunderBlog® & News

Nearby

Air Quality

  Air Quality AQ Index Pollutant
Not available.

Snow Depth

Station Depth Elevation

Earthquake Activity

City Distance Mag. Time & Date
Minimum magnitude displayed is 2.5.

Coastal Water Temperatures

Place Temperature

Stations

Nearby Weather Stations

Station Location Temp. Windchill Dew Point Humidity Wind Precip. Elev Updated Type
                   

Watches & Warnings

There are currently no watches in effect.